createdAt,value
2019-03-30T00:00:40.293Z,9.80
2019-03-30T00:01:40.283Z,9.78
2019-03-30T00:02:40.295Z,9.89
2019-03-30T00:03:40.266Z,9.85
2019-03-30T00:04:40.256Z,9.89
2019-03-30T00:05:40.240Z,9.81
2019-03-30T00:06:40.227Z,9.74
2019-03-30T00:07:40.241Z,9.78
2019-03-30T00:08:40.210Z,9.71
2019-03-30T00:09:40.195Z,9.70
2019-03-30T00:10:40.186Z,9.68
2019-03-30T00:11:40.181Z,9.81
2019-03-30T00:12:40.165Z,9.78
2019-03-30T00:13:40.161Z,9.70
2019-03-30T00:14:40.147Z,9.70
2019-03-30T00:15:40.138Z,9.81
2019-03-30T00:16:40.136Z,9.78
2019-03-30T00:17:40.108Z,9.70
2019-03-30T00:18:41.446Z,9.71
2019-03-30T00:19:40.094Z,9.70
2019-03-30T00:20:40.078Z,9.81
2019-03-30T00:21:40.069Z,9.80
2019-03-30T00:22:40.058Z,9.75
2019-03-30T00:23:40.059Z,9.67
2019-03-30T00:24:40.059Z,9.71
2019-03-30T00:25:40.037Z,9.75
2019-03-30T00:26:40.016Z,9.70
2019-03-30T00:27:40.008Z,9.74
2019-03-30T00:28:40.010Z,9.77
2019-03-30T00:29:40.036Z,9.77
2019-03-30T00:30:39.976Z,9.73
2019-03-30T00:31:39.965Z,9.73
2019-03-30T00:32:39.958Z,9.70
2019-03-30T00:33:39.965Z,9.67
2019-03-30T00:34:39.933Z,9.68
2019-03-30T00:35:39.919Z,9.65
2019-03-30T00:36:39.908Z,9.70
2019-03-30T00:37:39.893Z,9.63
2019-03-30T00:38:39.925Z,9.62
2019-03-30T00:39:39.878Z,9.62
2019-03-30T00:40:39.866Z,9.60
2019-03-30T00:41:39.853Z,9.63
2019-03-30T00:42:39.858Z,9.59
2019-03-30T00:43:39.849Z,9.59
2019-03-30T00:44:39.822Z,9.59
2019-03-30T00:45:39.810Z,9.58
2019-03-30T00:46:39.799Z,9.62
2019-03-30T00:47:39.791Z,9.59
2019-03-30T00:48:39.798Z,9.58
2019-03-30T00:49:48.943Z,9.52
2019-03-30T00:50:40.759Z,9.58
2019-03-30T00:51:39.750Z,9.50
2019-03-30T00:52:39.727Z,9.50
2019-03-30T00:53:39.750Z,9.49
2019-03-30T00:54:39.750Z,9.53
2019-03-30T00:55:39.699Z,9.55
2019-03-30T00:56:39.692Z,9.56
2019-03-30T00:57:39.687Z,9.55
2019-03-30T00:58:39.685Z,9.55
2019-03-30T00:59:39.663Z,9.55
2019-03-30T01:00:39.647Z,9.52
2019-03-30T01:01:39.638Z,9.52
2019-03-30T01:02:39.625Z,9.50
2019-03-30T01:03:39.646Z,9.48
2019-03-30T01:04:39.608Z,9.50
2019-03-30T01:05:39.607Z,9.50
2019-03-30T01:06:39.584Z,9.45
2019-03-30T01:07:39.578Z,9.50
2019-03-30T01:08:39.582Z,9.42
2019-03-30T01:09:39.551Z,9.48
2019-03-30T01:10:39.541Z,9.48
2019-03-30T01:11:39.525Z,9.49
2019-03-30T01:12:39.527Z,9.50
2019-03-30T01:13:39.522Z,9.49
2019-03-30T01:14:39.494Z,9.52
2019-03-30T01:15:39.485Z,9.45
2019-03-30T01:16:39.468Z,9.44
2019-03-30T01:17:39.463Z,9.44
2019-03-30T01:18:39.654Z,9.31
2019-03-30T01:19:39.437Z,9.34
2019-03-30T01:20:39.430Z,9.35
2019-03-30T01:21:39.424Z,9.37
2019-03-30T01:22:39.413Z,9.38
2019-03-30T01:23:39.402Z,9.35
2019-03-30T01:24:39.408Z,9.38
2019-03-30T01:25:39.376Z,9.35
2019-03-30T01:26:39.374Z,9.30
2019-03-30T01:27:39.357Z,9.31
2019-03-30T01:28:39.345Z,9.24
2019-03-30T01:29:39.342Z,9.23
2019-03-30T01:30:48.662Z,9.26
2019-03-30T01:31:47.709Z,9.32
2019-03-30T01:32:49.713Z,9.24
2019-03-30T01:33:48.729Z,9.27
2019-03-30T01:35:55.832Z,9.23
2019-03-30T01:36:55.817Z,9.27
2019-03-30T01:38:05.046Z,9.24
2019-03-30T01:38:55.791Z,9.20
2019-03-30T01:40:06.579Z,9.22
2019-03-30T01:41:05.092Z,9.24
2019-03-30T01:42:05.119Z,9.22
2019-03-30T01:43:06.133Z,9.13
2019-03-30T01:44:04.657Z,9.13
2019-03-30T01:44:55.730Z,9.23
2019-03-30T01:45:55.724Z,9.24
2019-03-30T01:46:55.707Z,9.24
2019-03-30T01:47:55.697Z,9.22
2019-03-30T01:48:55.690Z,9.17
2019-03-30T01:49:55.681Z,9.20
2019-03-30T01:50:55.671Z,9.19
2019-03-30T01:51:55.662Z,9.23
2019-03-30T01:52:55.639Z,9.19
2019-03-30T01:53:55.636Z,9.23
2019-03-30T01:54:55.633Z,9.15
2019-03-30T01:55:55.608Z,9.19
2019-03-30T01:56:55.602Z,9.12
2019-03-30T01:57:55.589Z,9.19
2019-03-30T01:58:55.580Z,9.10
2019-03-30T01:59:55.581Z,9.16
2019-03-30T02:00:55.566Z,9.17
2019-03-30T02:01:55.549Z,9.10
2019-03-30T02:02:55.548Z,9.15
2019-03-30T02:03:55.522Z,9.19
2019-03-30T02:04:55.537Z,9.19
2019-03-30T02:05:55.498Z,9.22
2019-03-30T02:06:55.511Z,9.15
2019-03-30T02:07:55.485Z,9.19
2019-03-30T02:08:55.474Z,9.19
2019-03-30T02:09:55.484Z,9.16
2019-03-30T02:11:03.175Z,9.12
2019-03-30T02:12:04.691Z,9.10
2019-03-30T02:12:55.427Z,9.03
2019-03-30T02:13:55.430Z,9.10
2019-03-30T02:14:55.419Z,9.06
2019-03-30T02:15:55.389Z,9.22
2019-03-30T02:16:55.380Z,9.08
2019-03-30T02:17:55.394Z,9.06
2019-03-30T02:18:55.357Z,9.16
2019-03-30T02:19:55.410Z,9.15
2019-03-30T02:20:55.335Z,9.10
2019-03-30T02:21:55.330Z,9.08
2019-03-30T02:22:55.321Z,9.10
2019-03-30T02:23:55.305Z,9.15
2019-03-30T02:24:55.307Z,9.16
2019-03-30T02:25:55.278Z,9.10
2019-03-30T02:26:55.273Z,9.06
2019-03-30T02:27:55.264Z,9.06
2019-03-30T02:28:55.263Z,8.97
2019-03-30T02:29:55.256Z,9.03
2019-03-30T02:30:55.231Z,9.12
2019-03-30T02:31:55.220Z,9.06
2019-03-30T02:32:55.211Z,9.03
2019-03-30T02:33:55.196Z,9.03
2019-03-30T02:34:55.211Z,9.01
2019-03-30T02:35:55.174Z,9.04
2019-03-30T02:36:55.177Z,8.97
2019-03-30T02:37:55.160Z,8.89
2019-03-30T02:38:55.150Z,8.97
2019-03-30T02:39:55.143Z,8.96
2019-03-30T02:40:55.119Z,8.89
2019-03-30T02:41:55.113Z,8.96
2019-03-30T02:42:55.095Z,8.86
2019-03-30T02:43:55.089Z,8.96
2019-03-30T02:44:55.105Z,8.96
2019-03-30T02:45:55.067Z,8.96
2019-03-30T02:46:55.057Z,8.94
2019-03-30T02:47:55.041Z,8.94
2019-03-30T02:48:55.029Z,8.93
2019-03-30T02:49:55.019Z,8.91
2019-03-30T02:50:55.035Z,8.97
2019-03-30T02:51:54.998Z,8.96
2019-03-30T02:52:55.000Z,8.89
2019-03-30T02:53:54.988Z,8.88
2019-03-30T02:54:54.970Z,8.86
2019-03-30T02:55:54.977Z,8.78
2019-03-30T02:56:54.952Z,8.76
2019-03-30T02:57:54.954Z,8.80
2019-03-30T02:58:54.934Z,8.76
2019-03-30T02:59:54.938Z,8.73
2019-03-30T03:00:54.917Z,8.71
2019-03-30T03:01:54.895Z,8.76
2019-03-30T03:02:54.885Z,8.78
2019-03-30T03:03:54.870Z,8.75
2019-03-30T03:04:54.869Z,8.64
2019-03-30T03:05:54.865Z,8.75
2019-03-30T03:06:54.841Z,8.79
2019-03-30T03:07:54.830Z,8.75
2019-03-30T03:08:54.824Z,8.73
2019-03-30T03:09:54.808Z,8.73
2019-03-30T03:10:54.815Z,8.71
2019-03-30T03:11:54.784Z,8.70
2019-03-30T03:12:54.781Z,8.67
2019-03-30T03:13:54.756Z,8.75
2019-03-30T03:14:54.763Z,8.75
2019-03-30T03:15:54.743Z,8.68
2019-03-30T03:16:54.859Z,8.78
2019-03-30T03:17:54.718Z,8.80
2019-03-30T03:18:54.727Z,8.76
2019-03-30T03:19:54.691Z,8.75
2019-03-30T03:21:07.248Z,8.78
2019-03-30T03:21:55.667Z,8.71
2019-03-30T03:22:54.658Z,8.73
2019-03-30T03:23:54.657Z,8.68
2019-03-30T03:24:54.647Z,8.68
2019-03-30T03:25:54.651Z,8.76
2019-03-30T03:26:54.625Z,8.63
2019-03-30T03:27:54.629Z,8.68
2019-03-30T03:28:54.600Z,8.68
2019-03-30T03:29:54.588Z,8.67
2019-03-30T03:30:54.595Z,8.65
2019-03-30T03:31:54.570Z,8.60
2019-03-30T03:32:54.560Z,8.58
2019-03-30T03:33:54.546Z,8.61
2019-03-30T03:34:54.596Z,8.63
2019-03-30T03:35:54.532Z,8.64
2019-03-30T03:36:54.513Z,8.63
2019-03-30T03:37:54.501Z,8.67
2019-03-30T03:38:54.494Z,8.60
2019-03-30T03:39:54.478Z,8.61
2019-03-30T03:40:54.477Z,8.58
2019-03-30T03:41:54.456Z,8.60
2019-03-30T03:42:54.444Z,8.63
2019-03-30T03:43:54.433Z,8.54
2019-03-30T03:44:54.441Z,8.55
2019-03-30T03:45:54.425Z,8.50
2019-03-30T03:46:54.398Z,8.49
2019-03-30T03:47:54.387Z,8.43
2019-03-30T03:48:54.380Z,8.43
2019-03-30T03:49:54.370Z,8.47
2019-03-30T03:50:54.381Z,8.42
2019-03-30T03:51:54.343Z,8.39
2019-03-30T03:52:54.333Z,8.52
2019-03-30T03:53:54.328Z,8.43
2019-03-30T03:54:54.319Z,8.46
2019-03-30T03:55:54.318Z,8.46
2019-03-30T03:56:54.310Z,8.46
2019-03-30T03:57:54.283Z,8.43
2019-03-30T03:58:54.272Z,8.49
2019-03-30T03:59:54.259Z,8.46
2019-03-30T04:00:54.252Z,8.39
2019-03-30T04:01:54.252Z,8.43
2019-03-30T04:02:54.225Z,8.37
2019-03-30T04:03:54.211Z,8.47
2019-03-30T04:04:54.204Z,8.49
2019-03-30T04:05:54.206Z,8.39
2019-03-30T04:06:54.195Z,8.42
2019-03-30T04:07:54.167Z,8.54
2019-03-30T04:08:54.222Z,8.43
2019-03-30T04:09:54.150Z,8.43
2019-03-30T04:10:54.141Z,8.49
2019-03-30T04:11:54.159Z,8.40
2019-03-30T04:12:54.138Z,8.34
2019-03-30T04:13:54.108Z,8.32
2019-03-30T04:14:54.097Z,8.37
2019-03-30T04:15:54.101Z,8.39
2019-03-30T04:16:54.094Z,8.31
2019-03-30T04:17:54.069Z,8.40
2019-03-30T04:18:54.063Z,8.40
2019-03-30T04:19:54.059Z,8.36
2019-03-30T04:20:54.033Z,8.39
2019-03-30T04:21:54.054Z,8.39
2019-03-30T04:22:54.014Z,8.29
2019-03-30T04:23:54.543Z,8.34
2019-03-30T04:25:03.223Z,8.21
2019-03-30T04:25:53.967Z,8.21
2019-03-30T04:26:53.971Z,8.25
2019-03-30T04:27:53.945Z,8.24
2019-03-30T04:28:53.935Z,8.21
2019-03-30T04:29:53.940Z,8.21
2019-03-30T04:30:53.916Z,8.20
2019-03-30T04:31:53.912Z,8.24
2019-03-30T04:32:53.893Z,8.20
2019-03-30T04:33:53.885Z,8.24
2019-03-30T04:34:53.871Z,8.18
2019-03-30T04:35:53.859Z,8.24
2019-03-30T04:36:53.861Z,8.20
2019-03-30T04:37:53.838Z,8.06
2019-03-30T04:38:53.827Z,8.04
2019-03-30T04:39:53.818Z,8.00
2019-03-30T04:40:53.818Z,7.96
2019-03-30T04:41:53.801Z,7.99
2019-03-30T04:42:53.784Z,7.92
2019-03-30T04:43:53.771Z,7.95
2019-03-30T04:44:53.762Z,7.92
2019-03-30T04:45:53.752Z,8.00
2019-03-30T04:46:53.750Z,8.04
2019-03-30T04:47:53.728Z,7.99
2019-03-30T04:48:53.719Z,8.02
2019-03-30T04:49:53.706Z,8.00
2019-03-30T04:50:53.695Z,7.95
2019-03-30T04:51:57.777Z,7.95
2019-03-30T04:52:53.674Z,7.92
2019-03-30T04:53:53.662Z,7.95
2019-03-30T04:54:53.654Z,8.00
2019-03-30T04:55:53.642Z,7.94
2019-03-30T04:56:53.643Z,7.96
2019-03-30T04:57:53.619Z,7.96
2019-03-30T04:58:53.610Z,7.94
2019-03-30T04:59:53.598Z,7.99
2019-03-30T05:00:53.590Z,8.04
2019-03-30T05:01:53.589Z,8.02
2019-03-30T05:02:53.565Z,7.92
2019-03-30T05:03:53.554Z,8.00
2019-03-30T05:04:53.545Z,7.88
2019-03-30T05:05:53.531Z,7.94
2019-03-30T05:06:53.538Z,7.89
2019-03-30T05:07:53.517Z,7.91
2019-03-30T05:08:53.500Z,7.88
2019-03-30T05:09:53.489Z,7.95
2019-03-30T05:10:53.480Z,7.94
2019-03-30T05:11:53.482Z,7.94
2019-03-30T05:12:53.457Z,7.89
2019-03-30T05:13:53.449Z,7.92
2019-03-30T05:14:53.435Z,7.91
2019-03-30T05:15:53.423Z,8.00
2019-03-30T05:16:53.421Z,8.04
2019-03-30T05:17:53.406Z,8.04
2019-03-30T05:18:53.390Z,7.99
2019-03-30T05:19:53.380Z,7.95
2019-03-30T05:20:53.369Z,7.94
2019-03-30T05:21:53.369Z,7.96
2019-03-30T05:22:53.348Z,7.96
2019-03-30T05:23:53.337Z,7.91
2019-03-30T05:24:53.327Z,7.92
2019-03-30T05:25:53.315Z,7.85
2019-03-30T05:26:53.331Z,8.03
2019-03-30T05:27:53.294Z,8.00
2019-03-30T05:28:53.284Z,8.00
2019-03-30T05:29:53.272Z,8.04
2019-03-30T05:30:53.261Z,8.10
2019-03-30T05:31:53.250Z,8.04
2019-03-30T05:33:05.125Z,8.07
2019-03-30T05:33:54.226Z,8.14
2019-03-30T05:34:53.216Z,8.13
2019-03-30T05:35:53.206Z,8.22
2019-03-30T05:36:53.196Z,8.20
2019-03-30T05:37:53.195Z,8.22
2019-03-30T05:38:53.177Z,8.13
2019-03-30T05:39:53.168Z,8.12
2019-03-30T05:40:53.151Z,8.20
2019-03-30T05:41:53.143Z,8.10
2019-03-30T05:42:53.139Z,8.20
2019-03-30T05:43:53.121Z,8.27
2019-03-30T05:44:53.112Z,8.14
2019-03-30T05:45:53.100Z,8.22
2019-03-30T05:46:53.093Z,8.25
2019-03-30T05:47:53.085Z,8.25
2019-03-30T05:48:53.064Z,8.24
2019-03-30T05:49:53.054Z,8.22
2019-03-30T05:50:53.043Z,8.29
2019-03-30T05:51:53.034Z,8.29
2019-03-30T05:52:53.033Z,8.34
2019-03-30T05:53:53.012Z,8.29
2019-03-30T05:54:53.003Z,8.39
2019-03-30T05:55:52.990Z,8.40
2019-03-30T05:56:52.978Z,8.47
2019-03-30T05:57:52.978Z,8.54
2019-03-30T05:58:52.959Z,8.55
2019-03-30T05:59:55.668Z,8.63
2019-03-30T06:00:52.936Z,8.50
2019-03-30T06:01:52.922Z,8.54
2019-03-30T06:02:52.924Z,8.54
2019-03-30T06:03:52.904Z,8.58
2019-03-30T06:04:52.893Z,8.71
2019-03-30T06:05:52.885Z,8.70
2019-03-30T06:06:52.869Z,8.76
2019-03-30T06:07:52.861Z,8.76
2019-03-30T06:08:52.861Z,8.83
2019-03-30T06:09:52.836Z,8.89
2019-03-30T06:10:52.825Z,8.98
2019-03-30T06:11:52.816Z,9.03
2019-03-30T06:12:52.805Z,9.16
2019-03-30T06:13:52.800Z,9.22
2019-03-30T06:14:52.780Z,9.31
2019-03-30T06:15:52.784Z,9.37
2019-03-30T06:16:52.848Z,9.35
2019-03-30T06:17:52.750Z,9.52
2019-03-30T06:18:52.749Z,9.58
2019-03-30T06:19:52.727Z,9.65
2019-03-30T06:20:52.716Z,9.74
2019-03-30T06:21:52.705Z,9.78
2019-03-30T06:22:52.693Z,9.81
2019-03-30T06:23:52.691Z,9.96
2019-03-30T06:24:52.674Z,10.04
2019-03-30T06:25:52.661Z,10.02
2019-03-30T06:26:52.650Z,10.13
2019-03-30T06:27:52.639Z,10.20
2019-03-30T06:28:52.635Z,10.16
2019-03-30T06:29:52.617Z,10.29
2019-03-30T06:30:52.606Z,10.39
2019-03-30T06:31:52.597Z,10.36
2019-03-30T06:32:52.586Z,10.52
2019-03-30T06:33:52.587Z,10.66
2019-03-30T06:34:52.580Z,10.63
2019-03-30T06:35:52.554Z,10.55
2019-03-30T06:36:52.541Z,10.75
2019-03-30T06:37:52.535Z,10.81
2019-03-30T06:38:52.536Z,10.91
2019-03-30T06:39:52.507Z,10.98
2019-03-30T06:40:52.497Z,10.98
2019-03-30T06:41:52.486Z,10.99
2019-03-30T06:42:52.476Z,11.01
2019-03-30T06:43:52.474Z,11.08
2019-03-30T06:44:52.542Z,11.12
2019-03-30T06:45:52.441Z,11.27
2019-03-30T06:46:52.433Z,11.31
2019-03-30T06:47:52.420Z,11.35
2019-03-30T06:48:52.429Z,11.53
2019-03-30T06:49:52.397Z,11.63
2019-03-30T06:50:52.388Z,11.70
2019-03-30T06:51:52.379Z,11.81
2019-03-30T06:52:57.974Z,11.88
2019-03-30T06:53:53.360Z,11.97
2019-03-30T06:54:52.343Z,11.97
2019-03-30T06:55:52.333Z,12.08
2019-03-30T06:56:52.321Z,12.21
2019-03-30T06:57:52.311Z,12.33
2019-03-30T06:58:52.309Z,12.43
2019-03-30T06:59:52.287Z,12.48
2019-03-30T07:00:52.278Z,12.61
2019-03-30T07:01:52.267Z,12.66
2019-03-30T07:02:52.254Z,12.80
2019-03-30T07:03:52.258Z,12.71
2019-03-30T07:04:52.233Z,12.76
2019-03-30T07:05:52.222Z,12.70
2019-03-30T07:06:52.209Z,12.54
2019-03-30T07:07:52.200Z,12.43
2019-03-30T07:08:52.221Z,12.44
2019-03-30T07:09:52.179Z,12.56
2019-03-30T07:10:52.165Z,12.44
2019-03-30T07:11:52.156Z,12.49
2019-03-30T07:12:52.143Z,12.55
2019-03-30T07:13:52.141Z,12.66
2019-03-30T07:14:52.130Z,12.77
2019-03-30T07:15:52.111Z,12.85
2019-03-30T07:16:52.104Z,12.88
2019-03-30T07:17:52.098Z,12.99
2019-03-30T07:18:52.080Z,13.07
2019-03-30T07:19:52.080Z,13.22
2019-03-30T07:20:52.059Z,13.27
2019-03-30T07:21:52.047Z,13.36
2019-03-30T07:22:52.037Z,13.46
2019-03-30T07:23:52.023Z,13.54
2019-03-30T07:24:52.021Z,13.73
2019-03-30T07:25:52.011Z,13.84
2019-03-30T07:26:51.991Z,13.94
2019-03-30T07:27:51.982Z,13.94
2019-03-30T07:28:51.971Z,13.96
2019-03-30T07:29:51.965Z,14.12
2019-03-30T07:30:51.947Z,14.09
2019-03-30T07:31:51.939Z,14.05
2019-03-30T07:32:51.928Z,14.04
2019-03-30T07:33:51.920Z,14.13
2019-03-30T07:34:51.932Z,14.08
2019-03-30T07:35:51.896Z,14.21
2019-03-30T07:36:51.881Z,14.34
2019-03-30T07:37:51.870Z,14.36
2019-03-30T07:38:51.859Z,14.56
2019-03-30T07:39:51.856Z,14.63
2019-03-30T07:40:51.838Z,14.74
2019-03-30T07:41:51.827Z,14.93
2019-03-30T07:42:51.824Z,14.98
2019-03-30T07:43:51.805Z,15.00
2019-03-30T07:44:51.804Z,14.98
2019-03-30T07:45:51.783Z,15.01
2019-03-30T07:46:51.772Z,14.93
2019-03-30T07:47:51.764Z,14.97
2019-03-30T07:48:51.753Z,15.01
2019-03-30T07:49:51.745Z,14.93
2019-03-30T07:50:51.727Z,14.95
2019-03-30T07:51:51.718Z,15.04
2019-03-30T07:52:51.704Z,15.15
2019-03-30T07:53:51.694Z,15.22
2019-03-30T07:54:51.690Z,15.30
2019-03-30T07:55:51.672Z,15.31
2019-03-30T07:57:04.151Z,15.43
2019-03-30T07:57:52.687Z,15.52
2019-03-30T07:58:51.646Z,15.53
2019-03-30T07:59:51.638Z,15.59
2019-03-30T08:00:51.621Z,15.74
2019-03-30T08:01:51.607Z,15.67
2019-03-30T08:02:51.594Z,15.74
2019-03-30T08:03:51.584Z,15.84
2019-03-30T08:04:51.583Z,15.91
2019-03-30T08:05:54.238Z,15.86
2019-03-30T08:06:51.551Z,15.98
2019-03-30T08:07:51.548Z,15.88
2019-03-30T08:08:51.530Z,16.01
2019-03-30T08:09:51.556Z,15.93
2019-03-30T08:10:51.507Z,16.08
2019-03-30T08:11:51.497Z,16.25
2019-03-30T08:12:51.485Z,16.23
2019-03-30T08:13:51.474Z,16.26
2019-03-30T08:14:51.469Z,16.22
2019-03-30T08:15:51.461Z,16.33
2019-03-30T08:16:51.440Z,16.52
2019-03-30T08:17:51.430Z,16.72
2019-03-30T08:18:51.420Z,16.81
2019-03-30T08:19:51.407Z,16.95
2019-03-30T08:20:51.405Z,16.99
2019-03-30T08:21:51.400Z,16.92
2019-03-30T08:22:51.375Z,16.92
2019-03-30T08:23:51.363Z,16.90
2019-03-30T08:24:51.367Z,16.96
2019-03-30T08:25:51.349Z,16.88
2019-03-30T08:26:51.331Z,16.95
2019-03-30T08:27:51.320Z,17.05
2019-03-30T08:28:51.310Z,17.10
2019-03-30T08:29:51.303Z,17.17
2019-03-30T08:30:51.298Z,17.27
2019-03-30T08:31:51.275Z,17.07
2019-03-30T08:32:51.264Z,17.17
2019-03-30T08:33:51.255Z,17.24
2019-03-30T08:34:51.248Z,17.21
2019-03-30T08:35:51.240Z,17.20
2019-03-30T08:36:51.225Z,17.25
2019-03-30T08:37:51.211Z,17.21
2019-03-30T08:38:51.202Z,17.30
2019-03-30T08:39:51.191Z,17.42
2019-03-30T08:40:51.186Z,17.42
2019-03-30T08:41:51.171Z,17.18
2019-03-30T08:42:51.157Z,17.40
2019-03-30T08:43:51.149Z,17.28
2019-03-30T08:44:51.135Z,17.42
2019-03-30T08:45:51.135Z,17.66
2019-03-30T08:46:51.122Z,17.66
2019-03-30T08:47:51.100Z,17.79
2019-03-30T08:48:51.089Z,17.86
2019-03-30T08:49:51.079Z,17.86
2019-03-30T08:50:51.078Z,17.98
2019-03-30T08:51:51.058Z,17.83
2019-03-30T08:52:51.045Z,17.77
2019-03-30T08:53:54.687Z,17.70
2019-03-30T08:54:51.026Z,17.89
2019-03-30T08:55:51.028Z,17.80
2019-03-30T08:56:51.004Z,17.91
2019-03-30T08:57:50.992Z,18.10
2019-03-30T08:58:50.981Z,18.09
2019-03-30T08:59:50.977Z,18.13
2019-03-30T09:00:50.967Z,18.07
2019-03-30T09:01:50.950Z,18.11
2019-03-30T09:02:50.950Z,18.19
2019-03-30T09:03:50.925Z,18.34
2019-03-30T09:04:50.915Z,18.51
2019-03-30T09:05:50.921Z,18.60
2019-03-30T09:06:50.895Z,18.74
2019-03-30T09:07:50.881Z,18.76
2019-03-30T09:08:50.905Z,18.69
2019-03-30T09:09:50.863Z,18.68
2019-03-30T09:10:50.858Z,18.71
2019-03-30T09:11:50.837Z,18.65
2019-03-30T09:12:50.827Z,18.66
2019-03-30T09:13:50.817Z,18.75
2019-03-30T09:14:50.807Z,18.87
2019-03-30T09:15:50.832Z,18.91
2019-03-30T09:16:50.782Z,18.87
2019-03-30T09:17:50.772Z,18.89
2019-03-30T09:18:50.768Z,18.91
2019-03-30T09:19:50.750Z,18.74
2019-03-30T09:20:50.744Z,18.79
2019-03-30T09:21:50.737Z,18.83
2019-03-30T09:22:50.717Z,18.79
2019-03-30T09:23:50.723Z,18.89
2019-03-30T09:24:50.697Z,18.99
2019-03-30T09:25:50.683Z,19.02
2019-03-30T09:26:50.694Z,19.12
2019-03-30T09:27:50.664Z,19.12
2019-03-30T09:28:50.652Z,19.10
2019-03-30T09:29:50.644Z,19.15
2019-03-30T09:30:50.632Z,19.17
2019-03-30T09:31:50.630Z,19.24
2019-03-30T09:32:50.611Z,19.32
2019-03-30T09:33:50.601Z,19.57
2019-03-30T09:34:50.587Z,19.71
2019-03-30T09:35:50.575Z,19.95
2019-03-30T09:36:50.711Z,20.26
2019-03-30T09:37:50.567Z,20.41
2019-03-30T09:38:50.562Z,20.73
2019-03-30T09:39:50.534Z,21.15
2019-03-30T09:40:50.526Z,21.49
2019-03-30T09:41:50.520Z,21.82
2019-03-30T09:42:50.500Z,22.04
2019-03-30T09:43:50.491Z,22.27
2019-03-30T09:44:50.480Z,22.33
2019-03-30T09:45:50.468Z,22.49
2019-03-30T09:46:50.467Z,22.64
2019-03-30T09:47:50.453Z,23.00
2019-03-30T09:48:50.443Z,23.04
2019-03-30T09:49:50.426Z,23.26
2019-03-30T09:50:50.417Z,23.45
2019-03-30T09:51:50.416Z,23.63
2019-03-30T09:52:50.393Z,23.90
2019-03-30T09:53:50.388Z,24.27
2019-03-30T09:54:50.377Z,24.34
2019-03-30T09:55:50.362Z,24.60
2019-03-30T09:56:50.368Z,24.75
2019-03-30T09:57:50.369Z,24.83
2019-03-30T09:58:50.331Z,24.98
2019-03-30T09:59:50.321Z,24.99
2019-03-30T10:00:50.310Z,25.12
2019-03-30T10:01:50.320Z,25.20
2019-03-30T10:02:50.290Z,25.11
2019-03-30T10:03:50.315Z,25.14
2019-03-30T10:04:50.272Z,25.34
2019-03-30T10:05:50.277Z,25.42
2019-03-30T10:06:50.259Z,25.53
2019-03-30T10:07:50.246Z,25.67
2019-03-30T10:08:50.226Z,25.46
2019-03-30T10:09:50.221Z,25.51
2019-03-30T10:10:50.206Z,25.67
2019-03-30T10:11:50.206Z,25.60
2019-03-30T10:12:50.308Z,25.01
2019-03-30T10:13:50.177Z,24.60
2019-03-30T10:14:50.166Z,24.97
2019-03-30T10:15:50.182Z,25.36
2019-03-30T10:16:50.349Z,25.36
2019-03-30T10:17:50.797Z,25.22
2019-03-30T10:18:50.126Z,24.87
2019-03-30T10:20:03.690Z,25.08
2019-03-30T10:20:51.100Z,25.35
2019-03-30T10:21:50.101Z,25.66
2019-03-30T10:22:50.082Z,25.82
2019-03-30T10:23:50.070Z,26.03
2019-03-30T10:24:50.060Z,26.28
2019-03-30T10:27:06.319Z,26.68
2019-03-30T10:28:06.262Z,26.81
2019-03-30T10:29:06.254Z,26.42
2019-03-30T10:30:06.254Z,26.42
2019-03-30T10:31:07.970Z,26.56
2019-03-30T10:32:06.235Z,26.78
2019-03-30T10:33:06.208Z,26.51
2019-03-30T10:34:06.200Z,26.97
2019-03-30T10:35:06.192Z,26.98
2019-03-30T10:36:06.184Z,27.31
2019-03-30T10:37:06.194Z,27.24
2019-03-30T10:38:06.161Z,27.62
2019-03-30T10:39:06.158Z,27.96
2019-03-30T10:40:06.154Z,27.81
2019-03-30T10:41:06.144Z,27.71
2019-03-30T10:42:06.142Z,27.78
2019-03-30T10:43:06.165Z,27.90
2019-03-30T10:44:06.145Z,28.18
2019-03-30T10:45:06.095Z,28.38
2019-03-30T10:46:06.086Z,28.36
2019-03-30T10:47:06.098Z,28.85
2019-03-30T10:48:06.062Z,29.26
2019-03-30T10:49:06.056Z,29.20
2019-03-30T10:50:06.041Z,29.79
2019-03-30T10:51:06.037Z,30.40
2019-03-30T10:52:06.045Z,30.53
2019-03-30T10:53:06.022Z,30.46
2019-03-30T10:54:06.008Z,30.54
2019-03-30T10:55:06.022Z,30.32
2019-03-30T10:56:06.005Z,30.28
2019-03-30T10:57:05.991Z,30.18
2019-03-30T10:58:05.963Z,29.78
2019-03-30T10:59:05.970Z,29.85
2019-03-30T11:00:06.524Z,30.01
2019-03-30T11:01:05.941Z,30.30
2019-03-30T11:02:06.010Z,30.61
2019-03-30T11:03:05.918Z,31.18
2019-03-30T11:04:05.921Z,31.10
2019-03-30T11:05:05.948Z,31.59
2019-03-30T11:06:05.890Z,31.62
2019-03-30T11:07:06.063Z,32.05
2019-03-30T11:08:05.884Z,32.17
2019-03-30T11:09:05.859Z,32.13
2019-03-30T11:10:05.848Z,32.39
2019-03-30T11:11:05.843Z,32.51
2019-03-30T11:12:05.923Z,32.80
2019-03-30T11:13:05.835Z,32.78
2019-03-30T11:14:05.821Z,33.12
2019-03-30T11:15:05.811Z,33.59
2019-03-30T11:16:05.824Z,33.78
2019-03-30T11:17:05.787Z,33.66
2019-03-30T11:18:05.875Z,33.79
2019-03-30T11:19:05.758Z,33.74
2019-03-30T11:20:05.768Z,33.52
2019-03-30T11:21:05.780Z,33.24
2019-03-30T11:22:05.741Z,33.02
2019-03-30T11:23:05.737Z,32.43
2019-03-30T11:24:06.996Z,31.72
2019-03-30T11:25:08.552Z,31.16
2019-03-30T11:26:09.493Z,30.90
2019-03-30T11:27:05.687Z,30.93
2019-03-30T11:28:08.125Z,31.19
2019-03-30T11:29:05.664Z,31.85
2019-03-30T11:30:05.705Z,32.14
2019-03-30T11:31:05.773Z,32.17
2019-03-30T11:32:05.643Z,32.05
2019-03-30T11:33:06.536Z,32.21
2019-03-30T11:34:05.626Z,32.31
2019-03-30T11:35:05.632Z,32.51
2019-03-30T11:36:05.721Z,32.99
2019-03-30T11:37:05.653Z,33.24
2019-03-30T11:38:05.592Z,33.53
2019-03-30T11:39:05.600Z,33.63
2019-03-30T11:40:05.593Z,33.55
2019-03-30T11:41:05.713Z,33.94
2019-03-30T11:42:05.551Z,34.81
2019-03-30T11:43:05.748Z,35.22
2019-03-30T11:44:05.521Z,35.87
2019-03-30T11:45:05.523Z,36.31
2019-03-30T11:46:05.506Z,36.31
2019-03-30T11:47:05.496Z,36.46
2019-03-30T11:48:06.067Z,36.77
2019-03-30T11:49:05.488Z,37.31
2019-03-30T11:50:05.468Z,37.46
2019-03-30T11:51:05.475Z,37.81
2019-03-30T11:52:05.450Z,38.16
2019-03-30T11:53:05.483Z,38.03
2019-03-30T11:54:05.574Z,37.63
2019-03-30T11:55:05.440Z,37.39
2019-03-30T11:56:05.420Z,37.13
2019-03-30T11:57:05.409Z,36.96
2019-03-30T11:58:05.404Z,37.05
2019-03-30T11:59:05.405Z,37.31
2019-03-30T12:00:05.375Z,37.06
2019-03-30T12:01:05.372Z,36.78
2019-03-30T12:02:05.355Z,36.52
2019-03-30T12:03:05.410Z,36.18
2019-03-30T12:04:05.349Z,35.66
2019-03-30T12:05:05.331Z,35.15
2019-03-30T12:06:05.331Z,34.93
2019-03-30T12:07:05.311Z,34.65
2019-03-30T12:08:05.321Z,34.58
2019-03-30T12:09:05.390Z,34.52
2019-03-30T12:10:05.381Z,34.81
2019-03-30T12:11:05.306Z,35.18
2019-03-30T12:12:05.338Z,35.54
2019-03-30T12:13:05.258Z,36.40
2019-03-30T12:14:05.270Z,36.93
2019-03-30T12:15:05.240Z,37.62
2019-03-30T12:16:05.259Z,38.24
2019-03-30T12:17:05.251Z,38.68
2019-03-30T12:18:05.230Z,38.75
2019-03-30T12:19:05.248Z,38.82
2019-03-30T12:20:05.224Z,38.92
2019-03-30T12:21:05.280Z,39.06
2019-03-30T12:22:05.184Z,38.87
2019-03-30T12:23:05.177Z,38.84
2019-03-30T12:24:05.183Z,38.93
2019-03-30T12:25:05.157Z,38.70
2019-03-30T12:26:05.287Z,38.18
2019-03-30T12:27:05.141Z,38.40
2019-03-30T12:28:05.136Z,38.40
2019-03-30T12:29:05.146Z,38.49
2019-03-30T12:30:05.173Z,38.75
2019-03-30T12:31:05.116Z,38.50
2019-03-30T12:32:05.109Z,38.25
2019-03-30T12:33:05.125Z,38.44
2019-03-30T12:34:05.230Z,38.18
2019-03-30T12:35:05.075Z,38.38
2019-03-30T12:36:05.069Z,38.30
2019-03-30T12:37:05.065Z,38.15
2019-03-30T12:38:05.093Z,38.45
2019-03-30T12:39:06.063Z,38.74
2019-03-30T12:40:05.066Z,39.00
2019-03-30T12:41:05.026Z,39.29
2019-03-30T12:42:05.014Z,39.38
2019-03-30T12:43:05.059Z,38.68
2019-03-30T12:44:05.009Z,38.71
2019-03-30T12:45:05.001Z,38.43
2019-03-30T12:46:05.012Z,37.93
2019-03-30T12:47:04.981Z,37.47
2019-03-30T12:48:04.964Z,36.99
2019-03-30T12:49:04.963Z,36.03
2019-03-30T12:50:04.967Z,35.28
2019-03-30T12:51:04.939Z,34.78
2019-03-30T12:52:04.924Z,33.81
2019-03-30T12:53:04.906Z,32.87
2019-03-30T12:54:04.910Z,32.02
2019-03-30T12:55:04.931Z,31.18
2019-03-30T12:56:04.883Z,30.64
2019-03-30T12:57:04.908Z,29.99
2019-03-30T12:58:04.851Z,29.51
2019-03-30T12:59:04.857Z,29.21
2019-03-30T13:00:04.853Z,28.79
2019-03-30T13:01:04.827Z,28.46
2019-03-30T13:02:04.823Z,28.25
2019-03-30T13:03:04.852Z,28.06
2019-03-30T13:04:04.830Z,27.98
2019-03-30T13:05:07.459Z,27.76
2019-03-30T13:06:04.770Z,27.46
2019-03-30T13:07:04.759Z,26.94
2019-03-30T13:08:04.753Z,26.75